Time;durP1;ratioP1;P1;durP2;ratioP2;P2;SDS_P1;SDS_P2;PMS_P1;PMS_P2;Temp;Humidity;BMP_temperature;BMP_pressure;BME280_temperature;BME280_humidity;BME280_pressure;Samples;Min_cycle;Max_cycle;Signal;HPM_P1;HPM_P2
2023/06/13 00:02:22;;;;;;;9.07;8.27;;;22.00;5.50;;;;;;4990790;28;20232;-61
2023/06/13 00:04:51;;;;;;;8.13;7.57;;;22.00;5.50;;;;;;4991339;28;20945;-60
2023/06/13 00:07:17;;;;;;;7.90;7.40;;;22.00;6.20;;;;;;4991129;28;20461;-61
2023/06/13 00:09:43;;;;;;;7.30;6.80;;;21.90;6.00;;;;;;4991099;28;20470;-60
2023/06/13 00:12:12;;;;;;;7.90;7.30;;;21.90;6.40;;;;;;4990613;28;20174;-60
2023/06/13 00:14:38;;;;;;;9.53;8.93;;;21.80;6.00;;;;;;4992432;28;20812;-60
2023/06/13 00:17:04;;;;;;;9.33;8.70;;;21.80;6.00;;;;;;4991147;28;20496;-60
2023/06/13 00:19:30;;;;;;;8.70;8.20;;;21.70;5.90;;;;;;4991042;28;20182;-60
2023/06/13 00:21:57;;;;;;;9.07;8.50;;;21.70;6.30;;;;;;4990500;28;20416;-60
2023/06/13 00:24:23;;;;;;;9.50;9.00;;;21.70;6.70;;;;;;4991197;28;20268;-61
2023/06/13 00:26:48;;;;;;;8.73;8.20;;;21.60;6.20;;;;;;4992351;28;20535;-61
2023/06/13 00:29:14;;;;;;;8.63;8.23;;;21.60;6.80;;;;;;4991149;28;20776;-62
2023/06/13 00:31:40;;;;;;;9.30;8.80;;;21.50;6.40;;;;;;4990632;28;20249;-60
2023/06/13 00:34:06;;;;;;;9.53;8.93;;;21.50;6.50;;;;;;4991019;28;20185;-60
2023/06/13 00:36:37;;;;;;;10.43;9.50;;;21.40;6.80;;;;;;4990956;28;20921;-60
2023/06/13 00:39:02;;;;;;;9.60;8.90;;;21.40;6.90;;;;;;4991009;28;20189;-59
2023/06/13 00:41:32;;;;;;;10.67;9.93;;;21.30;7.00;;;;;;4993952;28;20433;-60
2023/06/13 00:43:58;;;;;;;9.93;9.03;;;21.30;7.50;;;;;;4994713;28;20174;-60
2023/06/13 00:46:32;;;;;;;9.90;9.20;;;21.20;7.30;;;;;;4994565;28;21009;-60
2023/06/13 00:48:58;;;;;;;9.60;9.00;;;21.20;8.10;;;;;;4994600;28;20180;-61
2023/06/13 00:51:27;;;;;;;9.10;8.50;;;21.20;7.50;;;;;;4993924;28;20492;-59
2023/06/13 00:53:54;;;;;;;9.80;8.90;;;21.20;7.60;;;;;;4994327;28;20201;-59
2023/06/13 00:56:20;;;;;;;8.30;7.80;;;21.20;7.40;;;;;;4995413;28;20413;-60
2023/06/13 00:58:45;;;;;;;9.53;8.93;;;21.20;7.40;;;;;;4994219;28;20516;-59
2023/06/13 01:01:13;;;;;;;10.17;9.57;;;21.20;7.60;;;;;;4993605;28;20227;-59
2023/06/13 01:03:45;;;;;;;9.83;9.10;;;21.10;7.60;;;;;;4995361;28;20178;-59
2023/06/13 01:06:14;;;;;;;9.30;8.70;;;21.00;7.80;;;;;;4994060;28;20421;-59
2023/06/13 01:08:40;;;;;;;9.73;9.13;;;21.00;8.60;;;;;;4994054;28;20908;-60
2023/06/13 01:11:51;;;;;;;9.57;9.07;;;21.00;8.40;;;;;;4993837;28;20548;-61
2023/06/13 01:14:30;;;;;;;9.73;8.90;;;20.90;8.20;;;;;;4991154;28;20781;-61
2023/06/13 01:17:03;;;;;;;9.50;9.00;;;20.80;8.20;;;;;;4994221;28;20417;-61
2023/06/13 01:19:41;;;;;;;9.63;9.07;;;20.80;8.30;;;;;;4993908;28;20436;-60
2023/06/13 01:22:19;;;;;;;9.63;8.97;;;20.90;8.40;;;;;;4993580;28;20450;-60
2023/06/13 01:25:08;;;;;;;9.67;8.87;;;20.80;8.70;;;;;;4993758;28;20429;-61
2023/06/13 01:27:37;;;;;;;9.27;8.77;;;20.80;8.40;;;;;;4993701;28;20473;-61
2023/06/13 01:30:04;;;;;;;9.70;8.70;;;20.80;8.70;;;;;;4993881;28;20432;-61
2023/06/13 01:32:32;;;;;;;9.00;8.60;;;20.70;8.80;;;;;;4993336;28;20417;-60
2023/06/13 01:34:59;;;;;;;9.57;9.03;;;20.60;9.10;;;;;;4993684;28;20424;-61
2023/06/13 01:37:25;;;;;;;9.83;9.33;;;20.50;9.80;;;;;;4993599;28;20421;-61
2023/06/13 01:39:51;;;;;;;9.93;9.13;;;20.60;9.60;;;;;;4993486;28;21161;-61
2023/06/13 01:42:16;;;;;;;9.40;8.80;;;20.50;9.00;;;;;;4992918;28;20592;-59
2023/06/13 01:44:42;;;;;;;9.40;8.87;;;20.50;9.40;;;;;;4993216;28;20181;-59
2023/06/13 01:47:12;;;;;;;10.10;9.27;;;20.60;9.40;;;;;;4993270;28;20220;-59
2023/06/13 01:50:28;;;;;;;9.33;8.73;;;20.70;9.10;;;;;;4993194;28;20472;-59
2023/06/13 01:53:11;;;;;;;9.43;8.80;;;20.70;9.10;;;;;;4933020;29;20474;-59
2023/06/13 01:55:57;;;;;;;9.60;9.00;;;20.70;9.40;;;;;;4993155;28;20417;-60
2023/06/13 01:58:29;;;;;;;9.60;9.10;;;20.80;9.50;;;;;;4993058;28;20425;-60
2023/06/13 02:00:55;;;;;;;10.07;9.37;;;20.70;9.30;;;;;;4993022;28;20429;-60
2023/06/13 02:03:23;;;;;;;9.73;9.20;;;20.70;9.40;;;;;;4992560;28;20941;-60
2023/06/13 02:05:49;;;;;;;9.30;8.80;;;20.60;9.60;;;;;;4992912;28;20428;-59
2023/06/13 02:08:16;;;;;;;9.07;8.63;;;20.50;9.60;;;;;;4992852;28;20547;-58
2023/06/13 02:10:41;;;;;;;9.80;9.30;;;20.50;9.70;;;;;;4992770;28;20229;-58
2023/06/13 02:13:07;;;;;;;9.97;9.00;;;20.50;9.70;;;;;;4992193;28;20414;-60
2023/06/13 02:15:33;;;;;;;9.83;9.33;;;20.60;9.60;;;;;;4992654;28;20209;-60
2023/06/13 02:17:58;;;;;;;9.30;8.80;;;20.60;10.00;;;;;;4976571;28;20634;-60
2023/06/13 02:20:24;;;;;;;8.93;8.43;;;20.60;10.00;;;;;;4992578;28;20196;-60
2023/06/13 02:22:49;;;;;;;9.20;8.70;;;20.60;10.10;;;;;;4992104;28;20267;-60
2023/06/13 02:25:16;;;;;;;9.37;8.77;;;20.50;10.00;;;;;;4992641;28;20654;-60
2023/06/13 02:27:42;;;;;;;9.80;9.20;;;20.50;10.10;;;;;;4993075;28;20284;-60
2023/06/13 02:30:08;;;;;;;9.10;8.50;;;20.50;9.80;;;;;;4992588;28;20418;-62
2023/06/13 02:32:36;;;;;;;9.87;9.07;;;20.50;10.10;;;;;;4991973;28;20940;-60
2023/06/13 02:35:02;;;;;;;10.13;9.43;;;20.60;10.10;;;;;;4992422;28;20475;-60
2023/06/13 02:37:28;;;;;;;8.63;8.10;;;20.60;10.00;;;;;;4992263;28;20425;-60
2023/06/13 02:39:54;;;;;;;9.03;8.63;;;20.50;10.10;;;;;;4992243;28;20421;-60
2023/06/13 02:42:19;;;;;;;9.47;8.90;;;20.60;10.30;;;;;;4991801;28;20526;-60
2023/06/13 02:44:45;;;;;;;9.70;8.93;;;20.60;9.50;;;;;;4992370;28;20552;-60
2023/06/13 02:47:10;;;;;;;10.20;9.37;;;20.60;9.90;;;;;;4992163;28;20592;-60
2023/06/13 02:49:36;;;;;;;9.30;8.80;;;20.40;9.90;;;;;;4992056;28;20209;-60
2023/06/13 02:52:02;;;;;;;9.43;8.93;;;20.40;10.00;;;;;;4991539;28;20180;-59
2023/06/13 02:54:27;;;;;;;9.80;9.20;;;20.30;10.10;;;;;;4991924;28;20639;-59
2023/06/13 02:56:53;;;;;;;8.77;8.27;;;20.20;10.20;;;;;;4992096;28;20549;-59
2023/06/13 02:59:19;;;;;;;8.63;8.23;;;20.10;10.50;;;;;;4991972;28;20651;-59
2023/06/13 03:01:45;;;;;;;10.27;9.57;;;20.00;10.60;;;;;;4991351;28;20272;-59
2023/06/13 03:04:11;;;;;;;9.60;9.07;;;20.00;10.70;;;;;;4990852;28;20484;-59
2023/06/13 03:06:41;;;;;;;9.60;8.90;;;19.90;10.70;;;;;;4991767;28;20468;-59
2023/06/13 03:09:07;;;;;;;9.50;8.77;;;20.00;10.90;;;;;;4991959;28;20185;-59
2023/06/13 03:11:33;;;;;;;9.00;8.50;;;19.80;10.90;;;;;;4991423;28;20413;-59
2023/06/13 03:13:59;;;;;;;9.50;9.10;;;19.90;10.90;;;;;;4991829;28;20416;-61
2023/06/13 03:16:27;;;;;;;9.77;9.30;;;20.00;11.70;;;;;;4991756;28;20677;-61
2023/06/13 03:18:53;;;;;;;9.87;9.17;;;20.00;10.70;;;;;;4991806;28;20194;-60
2023/06/13 03:21:18;;;;;;;9.40;8.80;;;19.90;10.80;;;;;;4975085;28;20421;-59
2023/06/13 03:23:44;;;;;;;10.23;9.53;;;19.90;11.50;;;;;;4991591;28;20185;-59
2023/06/13 03:26:10;;;;;;;9.77;9.27;;;19.90;10.70;;;;;;4991625;28;20558;-59
2023/06/13 03:28:36;;;;;;;9.00;8.40;;;20.00;11.10;;;;;;4991429;28;20214;-59
2023/06/13 03:31:02;;;;;;;9.53;9.13;;;20.00;11.10;;;;;;4991672;28;20925;-60
2023/06/13 03:33:28;;;;;;;9.67;9.17;;;20.00;10.60;;;;;;4991372;28;20413;-60
2023/06/13 03:35:53;;;;;;;9.40;9.00;;;19.90;10.50;;;;;;4991796;28;20459;-59
2023/06/13 03:38:20;;;;;;;9.10;8.47;;;19.80;10.50;;;;;;4991622;28;20190;-60
2023/06/13 03:40:46;;;;;;;8.90;8.10;;;19.70;10.50;;;;;;4991499;28;20623;-60
2023/06/13 03:43:11;;;;;;;9.77;9.17;;;19.60;10.60;;;;;;4991094;28;20483;-61
2023/06/13 03:45:37;;;;;;;8.70;8.20;;;19.60;10.60;;;;;;4991533;28;20421;-60
2023/06/13 03:48:03;;;;;;;9.27;8.67;;;19.60;10.60;;;;;;4991338;28;20229;-59
2023/06/13 03:50:28;;;;;;;9.53;8.93;;;19.70;10.90;;;;;;4991330;28;20228;-59
2023/06/13 03:52:54;;;;;;;9.17;8.37;;;19.70;10.70;;;;;;4990927;28;20425;-59
2023/06/13 03:55:20;;;;;;;9.10;8.40;;;19.70;10.40;;;;;;4991417;28;20178;-58
2023/06/13 03:57:45;;;;;;;8.37;7.97;;;19.70;10.10;;;;;;4991304;28;20182;-61
2023/06/13 04:00:11;;;;;;;9.07;8.47;;;19.70;10.60;;;;;;4975301;28;20201;-61
2023/06/13 04:02:37;;;;;;;9.10;8.60;;;19.80;10.10;;;;;;4992086;28;20183;-61
2023/06/13 04:05:05;;;;;;;9.40;8.67;;;19.70;10.10;;;;;;4991436;28;20432;-60
2023/06/13 04:07:33;;;;;;;8.50;7.90;;;19.70;10.20;;;;;;4991281;28;20511;-61
2023/06/13 04:10:01;;;;;;;9.87;9.10;;;19.60;10.60;;;;;;4991319;28;20780;-58
2023/06/13 04:12:27;;;;;;;9.70;9.20;;;19.50;10.30;;;;;;4990743;28;20425;-59
2023/06/13 04:14:53;;;;;;;9.30;8.63;;;19.60;10.20;;;;;;4992537;28;20421;-59
2023/06/13 04:17:18;;;;;;;9.90;9.20;;;19.50;10.10;;;;;;4996186;28;20412;-58
2023/06/13 04:19:44;;;;;;;9.63;9.00;;;19.40;10.20;;;;;;4996178;28;20186;-59
2023/06/13 04:22:10;;;;;;;9.50;9.00;;;19.50;10.50;;;;;;4994574;28;20274;-60
2023/06/13 04:24:36;;;;;;;9.50;8.90;;;19.40;10.40;;;;;;4994691;28;20513;-60
2023/06/13 04:27:03;;;;;;;10.10;9.60;;;19.30;10.50;;;;;;4994701;28;20206;-61
2023/06/13 04:29:29;;;;;;;9.60;9.00;;;19.30;10.60;;;;;;4994774;28;20409;-60
2023/06/13 04:31:56;;;;;;;9.57;8.80;;;19.30;10.80;;;;;;4994192;28;20469;-60
2023/06/13 04:34:23;;;;;;;9.27;8.87;;;19.30;10.50;;;;;;4994713;28;20436;-60
2023/06/13 04:36:55;;;;;;;10.80;9.97;;;19.30;10.60;;;;;;4994664;28;20421;-61
2023/06/13 04:39:24;;;;;;;9.43;8.90;;;19.20;10.50;;;;;;4994623;28;20503;-60
2023/06/13 04:41:55;;;;;;;9.73;9.23;;;19.20;10.70;;;;;;4994009;28;20534;-60
2023/06/13 04:44:25;;;;;;;9.87;9.27;;;19.10;10.80;;;;;;4994567;28;20417;-60
2023/06/13 04:46:52;;;;;;;10.23;9.77;;;19.10;10.70;;;;;;4994319;28;20468;-60
2023/06/13 04:49:18;;;;;;;9.90;9.30;;;19.10;10.70;;;;;;4994322;28;20468;-61
2023/06/13 04:51:44;;;;;;;9.43;8.83;;;19.10;10.80;;;;;;4993917;28;20410;-60
2023/06/13 04:54:10;;;;;;;9.20;8.63;;;19.10;10.70;;;;;;4994407;28;20174;-60
2023/06/13 04:56:37;;;;;;;9.60;8.77;;;19.20;10.80;;;;;;4994090;28;21010;-60
2023/06/13 04:59:03;;;;;;;9.23;8.73;;;19.20;10.50;;;;;;4994397;28;20174;-59
2023/06/13 05:01:32;;;;;;;9.50;8.80;;;19.20;10.60;;;;;;4995052;28;20816;-60
2023/06/13 05:03:58;;;;;;;9.40;8.70;;;19.20;10.70;;;;;;4994251;28;20174;-60
2023/06/13 05:06:24;;;;;;;9.83;8.93;;;19.30;10.70;;;;;;4994150;28;20409;-59
2023/06/13 05:08:52;;;;;;;9.40;8.80;;;19.40;10.10;;;;;;4994008;28;20182;-59
2023/06/13 05:11:18;;;;;;;9.90;9.10;;;19.50;10.10;;;;;;4993436;28;20833;-59
2023/06/13 05:13:43;;;;;;;9.80;9.30;;;19.40;9.90;;;;;;4993949;28;20429;-59
2023/06/13 05:16:09;;;;;;;10.33;9.77;;;19.40;9.60;;;;;;4993923;28;20547;-59
2023/06/13 05:18:35;;;;;;;9.73;8.90;;;19.50;9.70;;;;;;5010024;28;20552;-60
2023/06/13 05:21:01;;;;;;;10.23;9.53;;;19.50;9.10;;;;;;4993832;28;20184;-60
2023/06/13 05:23:28;;;;;;;9.30;8.80;;;19.50;9.30;;;;;;4993572;28;20631;-59
2023/06/13 05:25:53;;;;;;;11.23;9.97;;;19.50;8.80;;;;;;4993001;28;20175;-59
2023/06/13 05:28:19;;;;;;;9.07;8.57;;;19.50;8.90;;;;;;4993477;28;20464;-59
2023/06/13 05:30:45;;;;;;;9.40;8.90;;;19.50;8.30;;;;;;4993580;28;20213;-58
2023/06/13 05:33:13;;;;;;;8.90;8.50;;;19.50;8.30;;;;;;4993291;28;20425;-60
2023/06/13 05:35:39;;;;;;;8.40;7.90;;;19.50;8.10;;;;;;4993455;28;20452;-59
2023/06/13 05:38:09;;;;;;;9.07;8.57;;;19.50;7.40;;;;;;4993683;28;20512;-59
2023/06/13 05:40:35;;;;;;;8.50;8.17;;;19.50;7.30;;;;;;4993402;28;20531;-59
2023/06/13 05:43:01;;;;;;;8.13;7.70;;;19.40;7.30;;;;;;4992922;28;20999;-59
2023/06/13 05:45:27;;;;;;;9.07;8.67;;;19.40;7.80;;;;;;4993282;28;20422;-60
2023/06/13 05:47:52;;;;;;;10.63;9.80;;;19.50;8.10;;;;;;4993135;28;20217;-59
2023/06/13 05:50:18;;;;;;;10.27;9.23;;;19.60;7.60;;;;;;4993289;28;20177;-59
2023/06/13 05:52:43;;;;;;;9.40;8.90;;;19.50;7.20;;;;;;4992630;28;20185;-59
2023/06/13 05:55:09;;;;;;;8.83;8.33;;;19.50;7.10;;;;;;4993156;28;20174;-59
2023/06/13 05:57:44;;;;;;;10.00;9.40;;;19.60;6.40;;;;;;4993037;28;20198;-59
2023/06/13 06:00:13;;;;;;;9.30;8.50;;;19.60;6.20;;;;;;4993142;28;20260;-59
2023/06/13 06:02:43;;;;;;;7.97;7.40;;;19.70;6.80;;;;;;4992472;28;20429;-59
2023/06/13 06:05:11;;;;;;;7.97;7.53;;;19.70;7.30;;;;;;4993123;28;20421;-59
2023/06/13 06:07:37;;;;;;;9.07;8.57;;;19.70;5.80;;;;;;4992772;28;20487;-59
2023/06/13 06:10:03;;;;;;;8.93;8.20;;;19.80;6.40;;;;;;4992896;28;20425;-59
2023/06/13 06:12:29;;;;;;;9.30;8.70;;;19.80;6.10;;;;;;4992237;28;20464;-60
2023/06/13 06:14:55;;;;;;;8.40;7.93;;;19.90;5.20;;;;;;4994050;28;20417;-59
2023/06/13 06:17:21;;;;;;;10.13;9.20;;;19.90;5.60;;;;;;4992850;28;20423;-59
2023/06/13 06:19:50;;;;;;;9.10;8.50;;;19.90;5.30;;;;;;4992689;28;20265;-59
2023/06/13 06:22:15;;;;;;;8.40;7.90;;;19.80;4.50;;;;;;4992231;28;20174;-59
2023/06/13 06:24:44;;;;;;;8.30;7.80;;;19.80;5.40;;;;;;4992520;28;20425;-59
2023/06/13 06:27:13;;;;;;;8.50;8.00;;;19.80;5.10;;;;;;4992489;28;20210;-60
2023/06/13 06:29:39;;;;;;;9.80;9.10;;;19.80;5.30;;;;;;4992459;28;20421;-60
2023/06/13 06:32:06;;;;;;;9.67;8.97;;;19.90;5.50;;;;;;4992042;28;20425;-60
2023/06/13 06:34:32;;;;;;;9.23;8.50;;;20.00;4.90;;;;;;4992312;28;20424;-60
2023/06/13 06:36:58;;;;;;;9.30;8.47;;;20.00;4.60;;;;;;4992304;28;20499;-60
2023/06/13 06:39:24;;;;;;;9.40;8.70;;;20.10;4.30;;;;;;4992404;28;20783;-60
2023/06/13 06:41:49;;;;;;;9.10;8.30;;;20.10;4.70;;;;;;4991780;28;20292;-60
2023/06/13 06:44:15;;;;;;;9.27;8.67;;;20.10;4.20;;;;;;4992156;28;20184;-60
2023/06/13 06:46:41;;;;;;;10.23;9.40;;;20.00;4.20;;;;;;4991945;28;20190;-60
2023/06/13 06:49:07;;;;;;;9.10;8.60;;;20.00;4.10;;;;;;4992271;28;20182;-60
2023/06/13 06:51:33;;;;;;;8.80;8.40;;;20.00;5.50;;;;;;4991651;28;20601;-60
2023/06/13 06:53:59;;;;;;;10.57;9.77;;;20.00;4.00;;;;;;4992075;28;20463;-59
2023/06/13 06:56:25;;;;;;;9.37;8.70;;;20.10;4.20;;;;;;4993276;28;20441;-60
2023/06/13 06:58:51;;;;;;;9.63;8.80;;;20.10;4.20;;;;;;4992051;28;20182;-61
2023/06/13 07:01:18;;;;;;;9.10;8.60;;;20.20;4.30;;;;;;4991696;28;20420;-61
2023/06/13 07:03:44;;;;;;;8.93;8.50;;;20.30;3.50;;;;;;4991956;28;20181;-60
2023/06/13 07:06:11;;;;;;;9.80;9.13;;;20.30;3.60;;;;;;4991980;28;20429;-60
2023/06/13 07:08:37;;;;;;;9.87;8.87;;;20.40;3.10;;;;;;4991802;28;20464;-60
2023/06/13 07:11:03;;;;;;;10.30;9.60;;;20.40;3.60;;;;;;4991900;28;20433;-61
2023/06/13 07:13:28;;;;;;;9.93;9.33;;;20.50;4.10;;;;;;4991715;28;20933;-61
2023/06/13 07:15:54;;;;;;;10.30;9.70;;;20.60;4.00;;;;;;4991845;28;20206;-60
2023/06/13 07:18:19;;;;;;;9.67;9.17;;;20.70;3.00;;;;;;4991819;28;20180;-61
2023/06/13 07:20:45;;;;;;;9.90;9.40;;;20.80;3.40;;;;;;4992995;28;20181;-59
2023/06/13 07:23:12;;;;;;;10.27;9.57;;;20.80;2.90;;;;;;4991327;28;20236;-60
2023/06/13 07:25:40;;;;;;;10.70;10.20;;;20.80;2.90;;;;;;4991523;28;20418;-59
2023/06/13 07:28:07;;;;;;;11.33;10.70;;;20.80;2.70;;;;;;4991405;28;20821;-60
2023/06/13 07:30:32;;;;;;;10.40;9.90;;;20.80;3.30;;;;;;4991438;28;20432;-60
2023/06/13 07:32:58;;;;;;;10.50;9.90;;;20.80;2.80;;;;;;5007283;28;20839;-60
2023/06/13 07:35:24;;;;;;;11.67;10.97;;;20.90;2.70;;;;;;4991567;28;20662;-59
2023/06/13 07:37:53;;;;;;;9.80;9.00;;;20.90;2.60;;;;;;4991435;28;20186;-59
2023/06/13 07:40:21;;;;;;;10.30;9.80;;;20.90;2.40;;;;;;4991330;28;20331;-59
2023/06/13 07:42:47;;;;;;;11.57;10.97;;;20.90;2.70;;;;;;4990812;28;20417;-59
2023/06/13 07:45:14;;;;;;;10.70;10.10;;;21.00;2.60;;;;;;4991393;28;20417;-59
2023/06/13 07:47:39;;;;;;;10.50;10.00;;;21.10;3.90;;;;;;4991391;28;20457;-60
2023/06/13 07:50:05;;;;;;;10.60;9.80;;;21.10;2.40;;;;;;4993122;28;20928;-60
2023/06/13 07:52:32;;;;;;;10.60;10.03;;;21.10;2.10;;;;;;4994798;28;20204;-59
2023/06/13 07:54:57;;;;;;;12.53;11.50;;;21.10;2.10;;;;;;4995308;28;20444;-59
2023/06/13 07:57:23;;;;;;;10.37;9.77;;;21.20;2.40;;;;;;4995352;28;20518;-59
2023/06/13 07:59:49;;;;;;;10.40;9.90;;;21.30;2.10;;;;;;4995262;28;20185;-59
2023/06/13 08:02:14;;;;;;;9.80;9.20;;;21.30;1.80;;;;;;4994802;28;20182;-59
2023/06/13 08:04:40;;;;;;;10.27;9.67;;;21.40;1.00;;;;;;4995040;28;20177;-59
2023/06/13 08:07:06;;;;;;;10.70;10.07;;;21.50;1.00;;;;;;4995268;28;20232;-61
2023/06/13 08:09:32;;;;;;;10.50;9.60;;;21.50;1.30;;;;;;4995333;28;20658;-60
2023/06/13 08:11:58;;;;;;;10.00;9.30;;;21.60;1.20;;;;;;4994884;28;20420;-61
2023/06/13 08:14:24;;;;;;;8.90;8.33;;;21.60;1.30;;;;;;4995160;28;20199;-60
2023/06/13 08:16:50;;;;;;;9.60;8.80;;;21.60;1.00;;;;;;4995083;28;20417;-61
2023/06/13 08:19:15;;;;;;;10.47;9.77;;;21.60;1.00;;;;;;4995139;28;20475;-60
2023/06/13 08:21:41;;;;;;;10.30;9.40;;;21.70;1.80;;;;;;4994605;28;20174;-61
2023/06/13 08:24:07;;;;;;;10.57;9.87;;;21.70;1.70;;;;;;4994956;28;20174;-60
2023/06/13 08:26:33;;;;;;;10.70;10.20;;;21.80;2.70;;;;;;4994666;28;20236;-60
2023/06/13 08:29:02;;;;;;;9.20;8.70;;;21.90;2.40;;;;;;4994917;28;20181;-60
2023/06/13 08:31:29;;;;;;;8.83;8.23;;;21.80;1.40;;;;;;4994426;28;20440;-60
2023/06/13 08:33:55;;;;;;;9.63;9.13;;;21.80;3.10;;;;;;4994858;28;20500;-61
2023/06/13 08:36:21;;;;;;;8.90;8.20;;;21.80;3.90;;;;;;4994961;28;20425;-61
2023/06/13 08:38:47;;;;;;;8.80;8.20;;;21.90;2.20;;;;;;4994660;28;20936;-61
2023/06/13 08:41:15;;;;;;;10.17;9.57;;;21.80;1.40;;;;;;4994134;28;20441;-60
2023/06/13 08:43:42;;;;;;;10.43;9.77;;;21.80;1.70;;;;;;4994752;28;20182;-60
2023/06/13 08:46:07;;;;;;;10.73;10.13;;;21.90;2.20;;;;;;4994774;28;20424;-59
2023/06/13 08:48:33;;;;;;;9.50;8.93;;;22.00;1.90;;;;;;4994311;28;20828;-59
2023/06/13 08:51:00;;;;;;;10.00;9.30;;;22.00;2.00;;;;;;4994452;28;20178;-60
2023/06/13 08:53:29;;;;;;;9.47;8.80;;;22.00;2.00;;;;;;4993950;28;20170;-59
2023/06/13 08:55:56;;;;;;;9.77;9.27;;;22.10;1.40;;;;;;4994145;28;20958;-59
2023/06/13 08:58:27;;;;;;;10.47;9.87;;;22.30;1.00;;;;;;4994227;28;20422;-60
2023/06/13 09:00:53;;;;;;;10.70;10.10;;;22.40;1.00;;;;;;4993059;28;20457;-59
2023/06/13 09:03:20;;;;;;;11.03;10.07;;;22.50;1.00;;;;;;4977533;28;20500;-59
2023/06/13 09:05:47;;;;;;;9.53;9.03;;;22.80;1.00;;;;;;4994356;28;20429;-60
2023/06/13 09:08:14;;;;;;;9.20;8.70;;;22.80;1.00;;;;;;4994126;28;20461;-60
2023/06/13 09:10:41;;;;;;;9.67;9.17;;;22.90;1.00;;;;;;4993969;28;20452;-60
2023/06/13 09:13:07;;;;;;;10.03;9.43;;;22.90;1.00;;;;;;4993654;28;20425;-60
2023/06/13 09:15:34;;;;;;;9.70;9.30;;;22.80;1.00;;;;;;4994057;28;20405;-61
2023/06/13 09:18:00;;;;;;;10.20;9.40;;;22.80;1.00;;;;;;4994031;28;20846;-60
2023/06/13 09:20:28;;;;;;;9.10;8.67;;;22.90;1.00;;;;;;4993873;28;20413;-61
2023/06/13 09:22:55;;;;;;;10.00;9.50;;;23.00;1.00;;;;;;4993490;28;20432;-60
2023/06/13 09:25:21;;;;;;;10.23;9.73;;;23.00;1.00;;;;;;4993938;28;20789;-60
2023/06/13 09:27:47;;;;;;;9.17;8.57;;;23.20;1.00;;;;;;4993625;28;20861;-61
2023/06/13 09:30:16;;;;;;;9.33;8.87;;;23.30;1.00;;;;;;4993696;28;20494;-61
2023/06/13 09:32:53;;;;;;;9.90;9.30;;;23.30;1.00;;;;;;4993304;28;20181;-59
2023/06/13 09:35:19;;;;;;;9.57;9.03;;;23.30;1.00;;;;;;4994882;28;20420;-61
2023/06/13 09:37:46;;;;;;;9.00;8.40;;;23.30;1.00;;;;;;4993618;28;20786;-61
2023/06/13 09:40:12;;;;;;;9.80;9.20;;;23.20;1.00;;;;;;4993415;28;20529;-61
2023/06/13 09:42:38;;;;;;;10.70;9.97;;;23.30;1.00;;;;;;4993114;28;20448;-61
2023/06/13 09:45:08;;;;;;;8.80;8.30;;;23.40;1.00;;;;;;4993651;28;20898;-60
2023/06/13 09:47:34;;;;;;;9.00;8.50;;;23.60;1.00;;;;;;4993337;28;20205;-61
2023/06/13 09:50:01;;;;;;;9.23;8.40;;;23.60;1.00;;;;;;4993396;28;20902;-61
2023/06/13 09:52:30;;;;;;;10.03;9.13;;;23.80;1.00;;;;;;4992951;28;20417;-60
2023/06/13 09:54:56;;;;;;;8.37;7.97;;;24.10;1.00;;;;;;4993375;28;20425;-61
2023/06/13 09:57:22;;;;;;;9.43;8.63;;;24.30;1.00;;;;;;4994613;28;20417;-61
2023/06/13 09:59:50;;;;;;;8.83;8.43;;;24.30;1.00;;;;;;4993170;28;20428;-61
2023/06/13 10:02:17;;;;;;;10.83;8.60;;;24.50;1.00;;;;;;4992646;28;20424;-61
2023/06/13 10:04:43;;;;;;;9.30;8.90;;;24.60;1.00;;;;;;4993033;28;20515;-61
2023/06/13 10:07:11;;;;;;;9.50;8.90;;;24.70;1.00;;;;;;4992932;28;20460;-60
2023/06/13 10:09:37;;;;;;;9.03;8.53;;;24.70;1.00;;;;;;4992998;28;20516;-60
2023/06/13 10:12:11;;;;;;;9.40;9.00;;;24.90;1.00;;;;;;4992026;28;20834;-60
2023/06/13 10:14:40;;;;;;;10.50;9.43;;;25.00;1.00;;;;;;4992942;28;20418;-62
2023/06/13 10:17:10;;;;;;;10.63;9.97;;;25.20;1.00;;;;;;4992783;28;20778;-61
2023/06/13 10:19:39;;;;;;;10.07;9.37;;;25.30;1.00;;;;;;4992736;28;20421;-61
2023/06/13 10:22:06;;;;;;;10.20;8.87;;;25.40;1.00;;;;;;4992228;28;20847;-61
2023/06/13 10:24:35;;;;;;;9.70;9.20;;;25.40;1.00;;;;;;4992565;28;20421;-61
2023/06/13 10:27:02;;;;;;;9.20;8.70;;;25.40;1.00;;;;;;4992470;28;20458;-60
2023/06/13 10:29:33;;;;;;;10.03;9.43;;;25.50;1.00;;;;;;4992520;28;20505;-60
2023/06/13 10:32:05;;;;;;;9.83;9.33;;;25.50;1.00;;;;;;4993427;28;20771;-60
2023/06/13 10:35:08;;;;;;;9.03;8.63;;;25.60;1.00;;;;;;4992329;28;20433;-59
2023/06/13 10:38:02;;;;;;;10.33;9.73;;;25.60;1.00;;;;;;4992250;28;20413;-59
2023/06/13 10:40:58;;;;;;;10.73;10.13;;;25.60;1.00;;;;;;4992243;28;20456;-60
2023/06/13 10:43:51;;;;;;;9.70;9.20;;;25.60;1.00;;;;;;4991722;28;20424;-60
2023/06/13 10:46:16;;;;;;;9.47;8.90;;;25.50;1.00;;;;;;4992225;28;20426;-61
2023/06/13 10:48:51;;;;;;;9.67;9.17;;;25.60;1.00;;;;;;4992030;28;20465;-61
2023/06/13 10:51:22;;;;;;;9.30;8.90;;;25.60;1.00;;;;;;4991922;28;20169;-60
2023/06/13 10:54:17;;;;;;;9.30;8.87;;;25.70;1.00;;;;;;4992140;28;20421;-61
2023/06/13 10:56:43;;;;;;;10.00;9.50;;;25.60;1.00;;;;;;4975839;28;20409;-60
2023/06/13 10:59:10;;;;;;;9.80;9.00;;;25.60;1.00;;;;;;4992199;28;20420;-61
2023/06/13 11:01:38;;;;;;;10.27;9.57;;;25.60;1.00;;;;;;4991698;28;20417;-61
2023/06/13 11:04:07;;;;;;;9.57;9.00;;;25.50;1.00;;;;;;4992090;28;20414;-61
2023/06/13 11:06:32;;;;;;;10.57;10.00;;;25.60;1.00;;;;;;4992057;28;20636;-60
2023/06/13 11:09:15;;;;;;;14.00;9.90;;;25.60;1.00;;;;;;4993105;28;20453;-61
2023/06/13 11:11:51;;;;;;;10.47;9.87;;;25.40;1.00;;;;;;4991473;28;20188;-60
2023/06/13 11:14:24;;;;;;;10.60;9.93;;;25.50;1.00;;;;;;4991882;28;20425;-61
2023/06/13 11:16:50;;;;;;;10.37;9.87;;;25.60;1.00;;;;;;4992021;28;20432;-60
2023/06/13 11:19:21;;;;;;;10.60;9.90;;;25.60;1.00;;;;;;4992964;28;20892;-60
2023/06/13 11:21:51;;;;;;;9.97;8.80;;;25.70;1.00;;;;;;4991193;28;20174;-60
2023/06/13 11:24:19;;;;;;;9.63;9.13;;;25.70;1.00;;;;;;4991009;28;20465;-60
2023/06/13 11:26:45;;;;;;;10.47;9.70;;;25.60;1.00;;;;;;4991504;28;20413;-60
2023/06/13 11:29:14;;;;;;;10.50;9.90;;;25.50;1.00;;;;;;4991614;28;20433;-60
2023/06/13 11:31:41;;;;;;;10.43;9.73;;;25.30;1.00;;;;;;4990965;28;20429;-60
2023/06/13 11:34:15;;;;;;;11.10;10.40;;;25.30;1.00;;;;;;4991755;28;20413;-60
2023/06/13 11:36:43;;;;;;;11.27;10.37;;;25.50;1.00;;;;;;4991514;28;20464;-60
2023/06/13 11:39:36;;;;;;;10.00;9.40;;;25.50;1.00;;;;;;4991515;28;20432;-60
2023/06/13 11:42:02;;;;;;;10.10;9.63;;;25.50;1.00;;;;;;4990868;28;20511;-60
2023/06/13 11:44:28;;;;;;;10.00;9.43;;;25.50;1.00;;;;;;4991418;28;20767;-61
2023/06/13 11:46:54;;;;;;;10.27;9.63;;;25.50;1.00;;;;;;4991338;28;20913;-60
2023/06/13 11:49:20;;;;;;;11.87;9.60;;;25.50;1.00;;;;;;4991512;28;20425;-61
2023/06/13 11:51:45;;;;;;;10.20;9.70;;;25.50;1.00;;;;;;4990929;28;20425;-61
2023/06/13 11:54:12;;;;;;;10.70;10.10;;;25.40;1.00;;;;;;4991435;28;20212;-60
2023/06/13 11:56:49;;;;;;;11.43;10.33;;;25.40;1.00;;;;;;4991399;28;20182;-60
2023/06/13 11:59:22;;;;;;;9.33;8.80;;;25.40;1.00;;;;;;4991231;28;20436;-60
2023/06/13 12:01:54;;;;;;;10.07;9.63;;;25.50;1.00;;;;;;4990675;28;20464;-61
2023/06/13 12:04:22;;;;;;;10.03;9.33;;;25.60;1.00;;;;;;4991240;28;20472;-62
2023/06/13 12:06:50;;;;;;;10.30;9.80;;;25.50;1.00;;;;;;4991166;28;20468;-60
2023/06/13 12:09:16;;;;;;;9.47;9.00;;;25.60;1.00;;;;;;4991254;28;20428;-61
2023/06/13 12:11:43;;;;;;;10.17;9.67;;;25.70;1.00;;;;;;4990714;28;20425;-61
2023/06/13 12:14:08;;;;;;;10.70;9.90;;;25.70;1.00;;;;;;4991195;28;20425;-61
2023/06/13 12:16:36;;;;;;;9.57;9.07;;;25.70;1.00;;;;;;4992282;28;20425;-59
2023/06/13 12:19:07;;;;;;;10.67;10.07;;;25.60;1.00;;;;;;4991269;28;20276;-60
2023/06/13 12:21:35;;;;;;;10.83;10.07;;;25.60;1.00;;;;;;4990430;28;20425;-60
2023/06/13 12:24:09;;;;;;;11.20;10.30;;;25.70;1.00;;;;;;4992310;28;20528;-60
2023/06/13 12:26:40;;;;;;;10.83;10.33;;;25.80;1.00;;;;;;4992243;28;20428;-60
2023/06/13 12:29:07;;;;;;;11.20;10.43;;;25.90;1.00;;;;;;4991146;28;20413;-60
2023/06/13 12:31:40;;;;;;;10.73;9.93;;;25.80;1.00;;;;;;4990309;28;20831;-60
2023/06/13 12:34:16;;;;;;;10.47;9.87;;;25.80;1.00;;;;;;4991022;28;20777;-60
2023/06/13 12:36:45;;;;;;;11.70;11.10;;;25.80;1.00;;;;;;4994710;28;20397;-60
2023/06/13 12:39:14;;;;;;;10.97;10.20;;;25.70;1.00;;;;;;4994632;28;20417;-60
2023/06/13 12:41:50;;;;;;;9.90;9.30;;;25.70;1.00;;;;;;4993956;28;20744;-59
2023/06/13 12:44:19;;;;;;;12.20;11.30;;;25.50;1.00;;;;;;4994654;28;20433;-60
2023/06/13 12:46:46;;;;;;;11.73;10.90;;;25.50;1.00;;;;;;4994293;28;20427;-60
2023/06/13 12:49:14;;;;;;;10.50;9.90;;;25.50;1.00;;;;;;4994393;28;20533;-60
2023/06/13 12:51:42;;;;;;;10.13;9.43;;;25.60;1.00;;;;;;4993902;28;20429;-59
2023/06/13 12:54:15;;;;;;;11.07;10.27;;;25.60;1.00;;;;;;4994416;28;20866;-59
2023/06/13 12:56:55;;;;;;;9.83;9.33;;;25.50;1.00;;;;;;4994331;28;20433;-60